sensor_id;sensor_type;location;lat;lon;timestamp;temperature;humidity
42227;DHT22;27892;52.378;13.122;2022-12-05T00:00:58;7.30;77.90
42227;DHT22;27892;52.378;13.122;2022-12-05T00:03:25;7.30;78.10
42227;DHT22;27892;52.378;13.122;2022-12-05T00:05:51;7.20;77.40
42227;DHT22;27892;52.378;13.122;2022-12-05T00:08:17;7.20;77.80
42227;DHT22;27892;52.378;13.122;2022-12-05T00:10:42;7.10;78.30
42227;DHT22;27892;52.378;13.122;2022-12-05T00:13:08;7.20;78.50
42227;DHT22;27892;52.378;13.122;2022-12-05T00:15:39;7.20;78.00
42227;DHT22;27892;52.378;13.122;2022-12-05T00:18:05;7.30;78.50
42227;DHT22;27892;52.378;13.122;2022-12-05T00:20:31;7.30;77.90
42227;DHT22;27892;52.378;13.122;2022-12-05T00:22:57;7.20;77.60
42227;DHT22;27892;52.378;13.122;2022-12-05T00:25:22;7.10;78.30
42227;DHT22;27892;52.378;13.122;2022-12-05T00:27:48;7.20;78.60
42227;DHT22;27892;52.378;13.122;2022-12-05T00:30:14;7.20;78.10
42227;DHT22;27892;52.378;13.122;2022-12-05T00:32:39;7.30;79.00
42227;DHT22;27892;52.378;13.122;2022-12-05T00:35:05;7.30;78.10
42227;DHT22;27892;52.378;13.122;2022-12-05T00:37:31;7.30;78.80
42227;DHT22;27892;52.378;13.122;2022-12-05T00:39:56;7.30;78.00
42227;DHT22;27892;52.378;13.122;2022-12-05T00:42:22;7.30;77.90
42227;DHT22;27892;52.378;13.122;2022-12-05T00:44:51;7.30;78.00
42227;DHT22;27892;52.378;13.122;2022-12-05T00:47:16;7.40;78.20
42227;DHT22;27892;52.378;13.122;2022-12-05T00:49:42;7.40;78.10
42227;DHT22;27892;52.378;13.122;2022-12-05T00:52:08;7.40;78.20
42227;DHT22;27892;52.378;13.122;2022-12-05T00:54:33;7.40;77.60
42227;DHT22;27892;52.378;13.122;2022-12-05T00:56:59;7.40;77.60
42227;DHT22;27892;52.378;13.122;2022-12-05T00:59:24;7.40;78.00
42227;DHT22;27892;52.378;13.122;2022-12-05T01:01:51;7.50;77.70
42227;DHT22;27892;52.378;13.122;2022-12-05T01:04:19;7.40;77.60
42227;DHT22;27892;52.378;13.122;2022-12-05T01:06:45;7.50;77.80
42227;DHT22;27892;52.378;13.122;2022-12-05T01:09:17;7.40;77.50
42227;DHT22;27892;52.378;13.122;2022-12-05T01:11:43;7.30;77.10
42227;DHT22;27892;52.378;13.122;2022-12-05T01:14:10;7.30;77.80
42227;DHT22;27892;52.378;13.122;2022-12-05T01:16:38;7.20;77.70
42227;DHT22;27892;52.378;13.122;2022-12-05T01:19:09;7.20;78.10
42227;DHT22;27892;52.378;13.122;2022-12-05T01:21:35;7.30;78.50
42227;DHT22;27892;52.378;13.122;2022-12-05T01:24:01;7.30;78.80
42227;DHT22;27892;52.378;13.122;2022-12-05T01:26:27;7.30;78.10
42227;DHT22;27892;52.378;13.122;2022-12-05T01:28:53;7.20;78.10
42227;DHT22;27892;52.378;13.122;2022-12-05T01:31:28;7.20;78.80
42227;DHT22;27892;52.378;13.122;2022-12-05T01:33:56;7.30;78.50
42227;DHT22;27892;52.378;13.122;2022-12-05T01:36:23;7.20;78.60
42227;DHT22;27892;52.378;13.122;2022-12-05T01:38:50;7.30;78.80
42227;DHT22;27892;52.378;13.122;2022-12-05T01:41:27;7.30;79.10
42227;DHT22;27892;52.378;13.122;2022-12-05T01:46:30;7.30;78.70
42227;DHT22;27892;52.378;13.122;2022-12-05T01:49:04;7.10;78.50
42227;DHT22;27892;52.378;13.122;2022-12-05T01:51:32;7.20;79.00
42227;DHT22;27892;52.378;13.122;2022-12-05T01:53:59;7.20;79.10
42227;DHT22;27892;52.378;13.122;2022-12-05T01:56:25;7.20;79.10
42227;DHT22;27892;52.378;13.122;2022-12-05T01:58:52;7.20;78.80
42227;DHT22;27892;52.378;13.122;2022-12-05T02:01:18;7.20;78.90
42227;DHT22;27892;52.378;13.122;2022-12-05T02:03:46;7.10;79.00
42227;DHT22;27892;52.378;13.122;2022-12-05T02:06:13;7.20;79.50
42227;DHT22;27892;52.378;13.122;2022-12-05T02:08:39;7.30;79.20
42227;DHT22;27892;52.378;13.122;2022-12-05T02:11:06;7.30;78.60
42227;DHT22;27892;52.378;13.122;2022-12-05T02:19:14;7.20;78.90
42227;DHT22;27892;52.378;13.122;2022-12-05T02:22:10;7.20;79.20
42227;DHT22;27892;52.378;13.122;2022-12-05T02:33:07;7.10;79.00
42227;DHT22;27892;52.378;13.122;2022-12-05T02:35:39;7.10;79.70
42227;DHT22;27892;52.378;13.122;2022-12-05T02:38:27;7.10;79.90
42227;DHT22;27892;52.378;13.122;2022-12-05T02:41:00;7.20;80.10
42227;DHT22;27892;52.378;13.122;2022-12-05T02:46:23;7.10;79.60
42227;DHT22;27892;52.378;13.122;2022-12-05T02:48:55;7.10;80.00
42227;DHT22;27892;52.378;13.122;2022-12-05T02:51:23;7.10;80.30
42227;DHT22;27892;52.378;13.122;2022-12-05T02:53:50;7.10;80.40
42227;DHT22;27892;52.378;13.122;2022-12-05T02:56:19;7.10;80.60
42227;DHT22;27892;52.378;13.122;2022-12-05T02:58:52;7.10;80.60
42227;DHT22;27892;52.378;13.122;2022-12-05T03:01:24;7.10;80.60
42227;DHT22;27892;52.378;13.122;2022-12-05T03:03:52;7.10;81.00
42227;DHT22;27892;52.378;13.122;2022-12-05T03:06:50;7.00;80.20
42227;DHT22;27892;52.378;13.122;2022-12-05T03:09:22;7.00;80.80
42227;DHT22;27892;52.378;13.122;2022-12-05T03:11:58;7.10;80.70
42227;DHT22;27892;52.378;13.122;2022-12-05T03:14:37;7.00;80.90
42227;DHT22;27892;52.378;13.122;2022-12-05T03:17:10;7.10;81.10
42227;DHT22;27892;52.378;13.122;2022-12-05T03:20:03;7.10;81.00
42227;DHT22;27892;52.378;13.122;2022-12-05T03:22:33;7.10;80.60
42227;DHT22;27892;52.378;13.122;2022-12-05T03:25:02;7.10;80.90
42227;DHT22;27892;52.378;13.122;2022-12-05T03:27:49;7.00;80.60
42227;DHT22;27892;52.378;13.122;2022-12-05T03:30:18;7.10;80.80
42227;DHT22;27892;52.378;13.122;2022-12-05T03:47:19;7.10;80.90
42227;DHT22;27892;52.378;13.122;2022-12-05T03:49:58;7.00;80.80
42227;DHT22;27892;52.378;13.122;2022-12-05T03:52:30;7.00;80.20
42227;DHT22;27892;52.378;13.122;2022-12-05T03:55:04;7.00;81.10
42227;DHT22;27892;52.378;13.122;2022-12-05T03:58:18;7.20;81.30
42227;DHT22;27892;52.378;13.122;2022-12-05T04:00:25;7.20;80.20
42227;DHT22;27892;52.378;13.122;2022-12-05T04:02:57;7.10;80.20
42227;DHT22;27892;52.378;13.122;2022-12-05T04:05:35;7.10;80.90
42227;DHT22;27892;52.378;13.122;2022-12-05T04:08:12;7.10;80.30
42227;DHT22;27892;52.378;13.122;2022-12-05T04:10:41;7.20;81.20
42227;DHT22;27892;52.378;13.122;2022-12-05T04:13:23;7.30;80.20
42227;DHT22;27892;52.378;13.122;2022-12-05T04:16:03;7.30;80.60
42227;DHT22;27892;52.378;13.122;2022-12-05T04:19:16;7.30;80.90
42227;DHT22;27892;52.378;13.122;2022-12-05T04:21:46;7.30;80.20
42227;DHT22;27892;52.378;13.122;2022-12-05T04:24:16;7.20;79.40
42227;DHT22;27892;52.378;13.122;2022-12-05T04:30:09;7.30;80.20
42227;DHT22;27892;52.378;13.122;2022-12-05T04:32:50;7.30;80.20
42227;DHT22;27892;52.378;13.122;2022-12-05T04:35:28;7.30;79.60
42227;DHT22;27892;52.378;13.122;2022-12-05T04:37:59;7.30;80.00
42227;DHT22;27892;52.378;13.122;2022-12-05T04:40:36;7.30;80.10
42227;DHT22;27892;52.378;13.122;2022-12-05T04:43:04;7.30;79.70
42227;DHT22;27892;52.378;13.122;2022-12-05T04:45:32;7.30;79.30
42227;DHT22;27892;52.378;13.122;2022-12-05T04:48:03;7.20;79.30
42227;DHT22;27892;52.378;13.122;2022-12-05T04:50:32;7.30;79.90
42227;DHT22;27892;52.378;13.122;2022-12-05T04:53:00;7.30;79.70
42227;DHT22;27892;52.378;13.122;2022-12-05T04:55:28;7.30;79.30
42227;DHT22;27892;52.378;13.122;2022-12-05T04:58:16;7.20;79.00
42227;DHT22;27892;52.378;13.122;2022-12-05T05:01:09;7.30;79.80
42227;DHT22;27892;52.378;13.122;2022-12-05T05:04:00;7.30;79.70
42227;DHT22;27892;52.378;13.122;2022-12-05T05:06:26;7.40;79.70
42227;DHT22;27892;52.378;13.122;2022-12-05T05:08:55;7.30;79.40
42227;DHT22;27892;52.378;13.122;2022-12-05T05:11:26;7.30;79.60
42227;DHT22;27892;52.378;13.122;2022-12-05T05:13:53;7.30;79.30
42227;DHT22;27892;52.378;13.122;2022-12-05T05:16:26;7.30;79.30
42227;DHT22;27892;52.378;13.122;2022-12-05T05:18:52;7.40;79.10
42227;DHT22;27892;52.378;13.122;2022-12-05T05:21:26;7.20;78.50
42227;DHT22;27892;52.378;13.122;2022-12-05T05:23:52;7.20;79.40
42227;DHT22;27892;52.378;13.122;2022-12-05T05:26:18;7.20;79.50
42227;DHT22;27892;52.378;13.122;2022-12-05T05:28:45;7.20;79.70
42227;DHT22;27892;52.378;13.122;2022-12-05T05:31:11;7.30;79.70
42227;DHT22;27892;52.378;13.122;2022-12-05T05:33:37;7.30;79.80
42227;DHT22;27892;52.378;13.122;2022-12-05T05:36:11;7.30;79.60
42227;DHT22;27892;52.378;13.122;2022-12-05T05:38:40;7.40;79.80
42227;DHT22;27892;52.378;13.122;2022-12-05T05:41:14;7.40;78.90
42227;DHT22;27892;52.378;13.122;2022-12-05T05:43:41;7.40;79.30
42227;DHT22;27892;52.378;13.122;2022-12-05T05:46:07;7.40;79.70
42227;DHT22;27892;52.378;13.122;2022-12-05T05:48:32;7.50;79.40
42227;DHT22;27892;52.378;13.122;2022-12-05T05:50:59;7.40;78.80
42227;DHT22;27892;52.378;13.122;2022-12-05T05:53:25;7.50;79.60
42227;DHT22;27892;52.378;13.122;2022-12-05T05:55:51;7.50;79.30
42227;DHT22;27892;52.378;13.122;2022-12-05T05:58:16;7.60;79.30
42227;DHT22;27892;52.378;13.122;2022-12-05T06:00:42;7.50;78.70
42227;DHT22;27892;52.378;13.122;2022-12-05T06:03:08;7.50;78.80
42227;DHT22;27892;52.378;13.122;2022-12-05T06:05:33;7.40;78.70
42227;DHT22;27892;52.378;13.122;2022-12-05T06:07:59;7.50;79.00
42227;DHT22;27892;52.378;13.122;2022-12-05T06:10:25;7.30;78.70
42227;DHT22;27892;52.378;13.122;2022-12-05T06:12:50;7.30;78.80
42227;DHT22;27892;52.378;13.122;2022-12-05T06:15:16;7.30;79.90
42227;DHT22;27892;52.378;13.122;2022-12-05T06:17:42;7.30;79.20
42227;DHT22;27892;52.378;13.122;2022-12-05T06:20:08;7.30;79.50
42227;DHT22;27892;52.378;13.122;2022-12-05T06:22:33;7.40;79.60
42227;DHT22;27892;52.378;13.122;2022-12-05T06:24:59;7.50;79.40
42227;DHT22;27892;52.378;13.122;2022-12-05T06:27:25;7.50;79.00
42227;DHT22;27892;52.378;13.122;2022-12-05T06:29:50;7.50;78.50
42227;DHT22;27892;52.378;13.122;2022-12-05T06:32:17;7.50;79.10
42227;DHT22;27892;52.378;13.122;2022-12-05T06:34:42;7.40;78.30
42227;DHT22;27892;52.378;13.122;2022-12-05T06:37:08;7.40;78.80
42227;DHT22;27892;52.378;13.122;2022-12-05T06:39:34;7.30;78.70
42227;DHT22;27892;52.378;13.122;2022-12-05T06:41:59;7.20;79.10
42227;DHT22;27892;52.378;13.122;2022-12-05T06:44:25;7.30;79.10
42227;DHT22;27892;52.378;13.122;2022-12-05T06:46:54;7.40;79.30
42227;DHT22;27892;52.378;13.122;2022-12-05T06:49:21;7.40;79.10
42227;DHT22;27892;52.378;13.122;2022-12-05T06:51:47;7.40;78.70
42227;DHT22;27892;52.378;13.122;2022-12-05T06:54:13;7.30;78.30
42227;DHT22;27892;52.378;13.122;2022-12-05T06:56:39;7.30;78.90
42227;DHT22;27892;52.378;13.122;2022-12-05T06:59:04;7.20;78.30
42227;DHT22;27892;52.378;13.122;2022-12-05T07:01:30;7.30;79.00
42227;DHT22;27892;52.378;13.122;2022-12-05T07:04:32;7.30;78.60
42227;DHT22;27892;52.378;13.122;2022-12-05T07:06:58;7.30;79.40
42227;DHT22;27892;52.378;13.122;2022-12-05T07:09:25;7.40;79.30
42227;DHT22;27892;52.378;13.122;2022-12-05T07:12:13;7.40;79.20
42227;DHT22;27892;52.378;13.122;2022-12-05T07:14:40;7.30;78.80
42227;DHT22;27892;52.378;13.122;2022-12-05T07:17:05;7.30;79.20
42227;DHT22;27892;52.378;13.122;2022-12-05T07:19:31;7.30;79.20
42227;DHT22;27892;52.378;13.122;2022-12-05T07:21:57;7.30;79.10
42227;DHT22;27892;52.378;13.122;2022-12-05T07:24:22;7.20;79.30
42227;DHT22;27892;52.378;13.122;2022-12-05T07:26:48;7.30;79.50
42227;DHT22;27892;52.378;13.122;2022-12-05T07:29:14;7.30;79.00
42227;DHT22;27892;52.378;13.122;2022-12-05T07:31:39;7.40;79.30
42227;DHT22;27892;52.378;13.122;2022-12-05T07:34:05;7.40;79.30
42227;DHT22;27892;52.378;13.122;2022-12-05T07:36:30;7.50;78.90
42227;DHT22;27892;52.378;13.122;2022-12-05T07:38:57;7.40;78.90
42227;DHT22;27892;52.378;13.122;2022-12-05T07:41:26;7.30;79.20
42227;DHT22;27892;52.378;13.122;2022-12-05T07:43:53;7.40;79.20
42227;DHT22;27892;52.378;13.122;2022-12-05T07:46:19;7.50;79.10
42227;DHT22;27892;52.378;13.122;2022-12-05T07:48:46;7.50;79.00
42227;DHT22;27892;52.378;13.122;2022-12-05T07:51:12;7.50;78.90
42227;DHT22;27892;52.378;13.122;2022-12-05T07:53:38;7.40;78.60
42227;DHT22;27892;52.378;13.122;2022-12-05T07:56:07;7.30;79.30
42227;DHT22;27892;52.378;13.122;2022-12-05T07:58:34;7.40;79.40
42227;DHT22;27892;52.378;13.122;2022-12-05T08:01:21;7.40;79.20
42227;DHT22;27892;52.378;13.122;2022-12-05T08:03:47;7.30;79.40
42227;DHT22;27892;52.378;13.122;2022-12-05T08:06:15;7.00;79.20
42227;DHT22;27892;52.378;13.122;2022-12-05T08:08:41;7.00;80.40
42227;DHT22;27892;52.378;13.122;2022-12-05T08:11:12;7.10;80.60
42227;DHT22;27892;52.378;13.122;2022-12-05T08:13:39;7.20;80.50
42227;DHT22;27892;52.378;13.122;2022-12-05T08:16:09;7.30;79.90
42227;DHT22;27892;52.378;13.122;2022-12-05T08:18:35;7.40;80.50
42227;DHT22;27892;52.378;13.122;2022-12-05T08:21:06;7.30;79.40
42227;DHT22;27892;52.378;13.122;2022-12-05T08:23:32;7.40;80.10
42227;DHT22;27892;52.378;13.122;2022-12-05T08:26:08;7.50;80.20
42227;DHT22;27892;52.378;13.122;2022-12-05T08:28:34;7.70;79.50
42227;DHT22;27892;52.378;13.122;2022-12-05T08:31:09;7.70;79.00
42227;DHT22;27892;52.378;13.122;2022-12-05T08:33:35;7.50;78.50
42227;DHT22;27892;52.378;13.122;2022-12-05T08:36:02;7.60;79.20
42227;DHT22;27892;52.378;13.122;2022-12-05T08:38:29;7.60;79.50
42227;DHT22;27892;52.378;13.122;2022-12-05T08:40:54;7.70;78.90
42227;DHT22;27892;52.378;13.122;2022-12-05T08:43:20;7.60;78.60
42227;DHT22;27892;52.378;13.122;2022-12-05T08:45:52;7.60;78.80
42227;DHT22;27892;52.378;13.122;2022-12-05T08:48:18;7.50;78.70
42227;DHT22;27892;52.378;13.122;2022-12-05T08:50:44;7.50;79.10
42227;DHT22;27892;52.378;13.122;2022-12-05T08:53:10;7.50;79.20
42227;DHT22;27892;52.378;13.122;2022-12-05T08:55:36;7.60;79.20
42227;DHT22;27892;52.378;13.122;2022-12-05T08:58:02;7.60;79.20
42227;DHT22;27892;52.378;13.122;2022-12-05T09:00:28;7.70;78.80
42227;DHT22;27892;52.378;13.122;2022-12-05T09:02:53;7.70;78.60
42227;DHT22;27892;52.378;13.122;2022-12-05T09:05:20;7.80;78.30
42227;DHT22;27892;52.378;13.122;2022-12-05T09:07:46;7.80;78.90
42227;DHT22;27892;52.378;13.122;2022-12-05T09:10:11;7.90;78.30
42227;DHT22;27892;52.378;13.122;2022-12-05T09:12:37;7.80;77.60
42227;DHT22;27892;52.378;13.122;2022-12-05T09:15:06;7.80;78.10
42227;DHT22;27892;52.378;13.122;2022-12-05T09:17:32;7.80;78.40
42227;DHT22;27892;52.378;13.122;2022-12-05T09:19:58;7.80;78.30
42227;DHT22;27892;52.378;13.122;2022-12-05T09:22:23;7.80;78.30
42227;DHT22;27892;52.378;13.122;2022-12-05T09:24:49;7.80;78.30
42227;DHT22;27892;52.378;13.122;2022-12-05T09:27:15;7.80;78.00
42227;DHT22;27892;52.378;13.122;2022-12-05T09:29:41;7.80;77.90
42227;DHT22;27892;52.378;13.122;2022-12-05T09:32:08;7.70;77.40
42227;DHT22;27892;52.378;13.122;2022-12-05T09:34:34;7.70;77.90
42227;DHT22;27892;52.378;13.122;2022-12-05T09:37:00;7.60;77.80
42227;DHT22;27892;52.378;13.122;2022-12-05T09:39:26;7.70;78.30
42227;DHT22;27892;52.378;13.122;2022-12-05T09:53:44;7.20;79.30
42227;DHT22;27892;52.378;13.122;2022-12-05T09:56:04;7.20;79.50
42227;DHT22;27892;52.378;13.122;2022-12-05T10:06:54;7.10;80.40
42227;DHT22;27892;52.378;13.122;2022-12-05T10:12:14;7.00;80.70
42227;DHT22;27892;52.378;13.122;2022-12-05T10:17:36;7.30;81.10
42227;DHT22;27892;52.378;13.122;2022-12-05T10:20:24;7.30;80.10
42227;DHT22;27892;52.378;13.122;2022-12-05T10:22:59;7.20;80.50
42227;DHT22;27892;52.378;13.122;2022-12-05T10:25:28;7.20;80.20
42227;DHT22;27892;52.378;13.122;2022-12-05T10:28:25;7.10;80.10
42227;DHT22;27892;52.378;13.122;2022-12-05T10:30:55;7.10;82.20
42227;DHT22;27892;52.378;13.122;2022-12-05T10:33:23;7.00;81.50
42227;DHT22;27892;52.378;13.122;2022-12-05T10:35:52;7.00;81.70
42227;DHT22;27892;52.378;13.122;2022-12-05T10:38:28;7.00;81.90
42227;DHT22;27892;52.378;13.122;2022-12-05T10:41:04;7.10;81.70
42227;DHT22;27892;52.378;13.122;2022-12-05T10:43:32;7.20;82.20
42227;DHT22;27892;52.378;13.122;2022-12-05T10:45:59;7.20;81.60
42227;DHT22;27892;52.378;13.122;2022-12-05T10:48:26;7.20;81.40
42227;DHT22;27892;52.378;13.122;2022-12-05T10:50:54;7.20;81.30
42227;DHT22;27892;52.378;13.122;2022-12-05T10:53:28;7.10;82.60
42227;DHT22;27892;52.378;13.122;2022-12-05T10:55:57;7.30;82.10
42227;DHT22;27892;52.378;13.122;2022-12-05T10:58:27;7.20;81.30
42227;DHT22;27892;52.378;13.122;2022-12-05T11:01:05;7.30;82.00
42227;DHT22;27892;52.378;13.122;2022-12-05T11:03:34;7.20;81.60
42227;DHT22;27892;52.378;13.122;2022-12-05T11:06:13;7.40;82.00
42227;DHT22;27892;52.378;13.122;2022-12-05T11:08:39;7.50;81.60
42227;DHT22;27892;52.378;13.122;2022-12-05T11:13:54;7.40;81.30
42227;DHT22;27892;52.378;13.122;2022-12-05T11:16:39;7.50;81.70
42227;DHT22;27892;52.378;13.122;2022-12-05T11:21:47;7.70;79.90
42227;DHT22;27892;52.378;13.122;2022-12-05T11:26:52;7.30;81.40
42227;DHT22;27892;52.378;13.122;2022-12-05T11:29:36;7.20;81.80
42227;DHT22;27892;52.378;13.122;2022-12-05T11:32:17;7.40;82.40
42227;DHT22;27892;52.378;13.122;2022-12-05T11:35:03;7.50;81.90
42227;DHT22;27892;52.378;13.122;2022-12-05T11:40:17;7.50;82.00
42227;DHT22;27892;52.378;13.122;2022-12-05T11:50:37;7.70;80.10
42227;DHT22;27892;52.378;13.122;2022-12-05T11:53:13;7.80;80.20
42227;DHT22;27892;52.378;13.122;2022-12-05T11:55:53;7.70;80.20
42227;DHT22;27892;52.378;13.122;2022-12-05T12:01:19;7.90;80.90
42227;DHT22;27892;52.378;13.122;2022-12-05T12:12:32;8.00;78.90
42227;DHT22;27892;52.378;13.122;2022-12-05T12:15:09;8.00;79.30
42227;DHT22;27892;52.378;13.122;2022-12-05T12:18:23;7.90;79.00
42227;DHT22;27892;52.378;13.122;2022-12-05T12:21:00;7.90;79.50
42227;DHT22;27892;52.378;13.122;2022-12-05T12:26:13;7.90;80.10
42227;DHT22;27892;52.378;13.122;2022-12-05T12:29:10;8.00;79.60
42227;DHT22;27892;52.378;13.122;2022-12-05T12:46:10;7.90;79.70
42227;DHT22;27892;52.378;13.122;2022-12-05T12:51:31;8.30;80.20
42227;DHT22;27892;52.378;13.122;2022-12-05T12:57:22;8.20;78.50
42227;DHT22;27892;52.378;13.122;2022-12-05T13:00:02;8.20;79.40
42227;DHT22;27892;52.378;13.122;2022-12-05T13:02:37;8.20;79.10
42227;DHT22;27892;52.378;13.122;2022-12-05T13:05:06;8.30;79.10
42227;DHT22;27892;52.378;13.122;2022-12-05T13:07:43;8.20;79.10
42227;DHT22;27892;52.378;13.122;2022-12-05T13:10:33;8.30;79.40
42227;DHT22;27892;52.378;13.122;2022-12-05T13:13:02;8.50;79.10
42227;DHT22;27892;52.378;13.122;2022-12-05T13:15:42;8.60;79.00
42227;DHT22;27892;52.378;13.122;2022-12-05T13:18:18;8.60;78.60
42227;DHT22;27892;52.378;13.122;2022-12-05T13:20:46;8.50;78.70
42227;DHT22;27892;52.378;13.122;2022-12-05T13:23:19;8.50;78.80
42227;DHT22;27892;52.378;13.122;2022-12-05T13:25:46;8.40;78.10
42227;DHT22;27892;52.378;13.122;2022-12-05T13:28:54;8.40;79.10
42227;DHT22;27892;52.378;13.122;2022-12-05T13:31:41;8.40;78.50
42227;DHT22;27892;52.378;13.122;2022-12-05T13:36:52;8.20;79.30
42227;DHT22;27892;52.378;13.122;2022-12-05T13:39:37;8.10;79.10
42227;DHT22;27892;52.378;13.122;2022-12-05T13:42:25;8.10;79.20
42227;DHT22;27892;52.378;13.122;2022-12-05T13:45:04;8.10;79.50
42227;DHT22;27892;52.378;13.122;2022-12-05T13:53:04;8.30;80.00
42227;DHT22;27892;52.378;13.122;2022-12-05T13:55:34;8.50;79.60
42227;DHT22;27892;52.378;13.122;2022-12-05T14:00:44;8.40;78.80
42227;DHT22;27892;52.378;13.122;2022-12-05T14:05:58;8.40;79.60
42227;DHT22;27892;52.378;13.122;2022-12-05T14:15:52;8.40;80.10
42227;DHT22;27892;52.378;13.122;2022-12-05T14:21:14;8.70;79.90
42227;DHT22;27892;52.378;13.122;2022-12-05T14:37:35;8.70;78.60
42227;DHT22;27892;52.378;13.122;2022-12-05T14:40:27;8.70;79.20
42227;DHT22;27892;52.378;13.122;2022-12-05T14:46:15;8.70;78.80
42227;DHT22;27892;52.378;13.122;2022-12-05T14:50:58;8.60;79.40
42227;DHT22;27892;52.378;13.122;2022-12-05T14:53:39;8.60;79.20
42227;DHT22;27892;52.378;13.122;2022-12-05T14:56:19;8.60;79.50
42227;DHT22;27892;52.378;13.122;2022-12-05T14:58:56;8.60;79.30
42227;DHT22;27892;52.378;13.122;2022-12-05T15:01:27;8.60;79.50
42227;DHT22;27892;52.378;13.122;2022-12-05T15:04:19;8.60;79.60
42227;DHT22;27892;52.378;13.122;2022-12-05T15:06:54;8.70;79.90
42227;DHT22;27892;52.378;13.122;2022-12-05T15:12:49;8.90;79.00
42227;DHT22;27892;52.378;13.122;2022-12-05T15:15:56;9.00;78.80
42227;DHT22;27892;52.378;13.122;2022-12-05T15:23:44;8.90;77.90
42227;DHT22;27892;52.378;13.122;2022-12-05T15:26:40;8.80;79.00
42227;DHT22;27892;52.378;13.122;2022-12-05T15:31:43;8.80;78.90
42227;DHT22;27892;52.378;13.122;2022-12-05T15:42:24;9.00;78.40
42227;DHT22;27892;52.378;13.122;2022-12-05T15:44:50;9.00;78.30
42227;DHT22;27892;52.378;13.122;2022-12-05T15:47:23;9.00;77.80
42227;DHT22;27892;52.378;13.122;2022-12-05T15:49:50;8.90;78.10
42227;DHT22;27892;52.378;13.122;2022-12-05T15:52:30;8.90;78.70
42227;DHT22;27892;52.378;13.122;2022-12-05T15:54:59;8.90;79.00
42227;DHT22;27892;52.378;13.122;2022-12-05T15:57:49;9.00;78.80
42227;DHT22;27892;52.378;13.122;2022-12-05T16:00:18;9.00;78.50
42227;DHT22;27892;52.378;13.122;2022-12-05T16:06:02;9.10;78.40
42227;DHT22;27892;52.378;13.122;2022-12-05T16:08:26;9.00;78.20
42227;DHT22;27892;52.378;13.122;2022-12-05T16:11:07;9.00;78.00
42227;DHT22;27892;52.378;13.122;2022-12-05T16:13:33;9.10;78.10
42227;DHT22;27892;52.378;13.122;2022-12-05T16:15:58;9.10;78.00
42227;DHT22;27892;52.378;13.122;2022-12-05T16:18:26;9.10;77.90
42227;DHT22;27892;52.378;13.122;2022-12-05T16:20:53;9.10;78.00
42227;DHT22;27892;52.378;13.122;2022-12-05T16:23:31;9.00;78.00
42227;DHT22;27892;52.378;13.122;2022-12-05T16:28:38;9.10;78.40
42227;DHT22;27892;52.378;13.122;2022-12-05T16:31:04;9.10;78.20
42227;DHT22;27892;52.378;13.122;2022-12-05T16:33:36;9.20;78.30
42227;DHT22;27892;52.378;13.122;2022-12-05T16:36:09;9.20;78.40
42227;DHT22;27892;52.378;13.122;2022-12-05T16:38:35;9.20;78.20
42227;DHT22;27892;52.378;13.122;2022-12-05T16:41:03;9.20;78.00
42227;DHT22;27892;52.378;13.122;2022-12-05T16:48:41;9.20;77.60
42227;DHT22;27892;52.378;13.122;2022-12-05T16:53:45;9.20;77.70
42227;DHT22;27892;52.378;13.122;2022-12-05T16:56:21;9.10;77.50
42227;DHT22;27892;52.378;13.122;2022-12-05T16:58:47;9.10;77.60
42227;DHT22;27892;52.378;13.122;2022-12-05T17:01:19;9.10;77.40
42227;DHT22;27892;52.378;13.122;2022-12-05T17:03:46;9.10;77.50
42227;DHT22;27892;52.378;13.122;2022-12-05T17:06:12;9.10;77.40
42227;DHT22;27892;52.378;13.122;2022-12-05T17:08:37;9.10;77.10
42227;DHT22;27892;52.378;13.122;2022-12-05T17:11:03;9.10;77.40
42227;DHT22;27892;52.378;13.122;2022-12-05T17:13:32;9.10;77.30
42227;DHT22;27892;52.378;13.122;2022-12-05T17:15:58;9.10;77.40
42227;DHT22;27892;52.378;13.122;2022-12-05T17:18:23;9.10;77.50
42227;DHT22;27892;52.378;13.122;2022-12-05T17:20:52;9.10;77.40
42227;DHT22;27892;52.378;13.122;2022-12-05T17:23:18;9.10;77.40
42227;DHT22;27892;52.378;13.122;2022-12-05T17:25:48;9.10;77.50
42227;DHT22;27892;52.378;13.122;2022-12-05T17:28:14;9.10;77.40
42227;DHT22;27892;52.378;13.122;2022-12-05T17:30:40;9.10;77.30
42227;DHT22;27892;52.378;13.122;2022-12-05T17:33:12;9.10;77.20
42227;DHT22;27892;52.378;13.122;2022-12-05T17:35:38;9.10;77.50
42227;DHT22;27892;52.378;13.122;2022-12-05T17:38:04;9.10;76.90
42227;DHT22;27892;52.378;13.122;2022-12-05T17:40:31;9.10;77.00
42227;DHT22;27892;52.378;13.122;2022-12-05T17:42:57;9.00;77.30
42227;DHT22;27892;52.378;13.122;2022-12-05T17:45:22;9.00;77.10
42227;DHT22;27892;52.378;13.122;2022-12-05T17:47:48;9.10;77.50
42227;DHT22;27892;52.378;13.122;2022-12-05T17:50:18;9.10;77.20
42227;DHT22;27892;52.378;13.122;2022-12-05T17:52:44;9.10;77.30
42227;DHT22;27892;52.378;13.122;2022-12-05T17:55:21;9.00;76.80
42227;DHT22;27892;52.378;13.122;2022-12-05T17:57:48;9.00;76.70
42227;DHT22;27892;52.378;13.122;2022-12-05T18:00:15;8.90;77.10
42227;DHT22;27892;52.378;13.122;2022-12-05T18:02:42;8.90;77.20
42227;DHT22;27892;52.378;13.122;2022-12-05T18:05:10;8.90;77.20
42227;DHT22;27892;52.378;13.122;2022-12-05T18:07:36;8.80;77.20
42227;DHT22;27892;52.378;13.122;2022-12-05T18:10:07;8.90;77.40
42227;DHT22;27892;52.378;13.122;2022-12-05T18:12:34;8.80;77.20
42227;DHT22;27892;52.378;13.122;2022-12-05T18:15:00;8.80;77.20
42227;DHT22;27892;52.378;13.122;2022-12-05T18:17:26;8.80;77.30
42227;DHT22;27892;52.378;13.122;2022-12-05T18:19:53;8.80;77.60
42227;DHT22;27892;52.378;13.122;2022-12-05T18:22:21;8.80;77.50
42227;DHT22;27892;52.378;13.122;2022-12-05T18:24:47;8.80;76.70
42227;DHT22;27892;52.378;13.122;2022-12-05T18:27:13;8.80;77.30
42227;DHT22;27892;52.378;13.122;2022-12-05T18:29:39;8.80;77.20
42227;DHT22;27892;52.378;13.122;2022-12-05T18:32:05;8.80;76.90
42227;DHT22;27892;52.378;13.122;2022-12-05T18:34:31;8.80;77.30
42227;DHT22;27892;52.378;13.122;2022-12-05T18:36:57;8.80;76.90
42227;DHT22;27892;52.378;13.122;2022-12-05T18:39:22;8.80;77.40
42227;DHT22;27892;52.378;13.122;2022-12-05T18:41:48;8.80;77.40
42227;DHT22;27892;52.378;13.122;2022-12-05T18:44:14;8.80;77.20
42227;DHT22;27892;52.378;13.122;2022-12-05T18:46:39;8.80;77.00
42227;DHT22;27892;52.378;13.122;2022-12-05T18:49:05;8.80;76.80
42227;DHT22;27892;52.378;13.122;2022-12-05T18:51:32;8.80;76.90
42227;DHT22;27892;52.378;13.122;2022-12-05T18:53:58;8.80;76.70
42227;DHT22;27892;52.378;13.122;2022-12-05T18:56:25;8.70;76.60
42227;DHT22;27892;52.378;13.122;2022-12-05T18:58:54;8.70;76.80
42227;DHT22;27892;52.378;13.122;2022-12-05T19:01:20;8.70;76.70
42227;DHT22;27892;52.378;13.122;2022-12-05T19:03:46;8.70;76.60